createdAt,value
2018-07-06T04:34:14.626Z,94859.89
2018-07-06T04:36:54.662Z,94862.14
2018-07-06T04:39:34.661Z,94867.27
2018-07-06T04:42:15.374Z,94867.70
2018-07-06T04:44:55.466Z,94865.92
2018-07-06T04:47:35.517Z,94858.79
2018-07-06T04:50:16.682Z,94862.59
2018-07-06T04:52:56.719Z,94864.36
2018-07-06T04:55:36.608Z,94860.47
2018-07-06T04:58:16.723Z,94863.15
2018-07-06T05:00:57.005Z,94857.45
2018-07-06T05:03:37.037Z,94858.22
2018-07-06T05:06:17.190Z,94867.48
2018-07-06T05:08:57.160Z,94859.02
2018-07-06T05:11:37.013Z,94854.14
2018-07-06T05:14:17.046Z,94864.58
2018-07-06T05:16:56.976Z,94860.14
2018-07-06T05:19:36.937Z,94863.24
2018-07-06T05:22:17.529Z,94851.01
2018-07-06T05:24:57.476Z,94859.25
2018-07-06T05:27:37.245Z,94854.11
2018-07-06T05:30:17.162Z,94862.37
2018-07-06T05:32:57.752Z,94864.25
2018-07-06T05:35:37.624Z,94866.38
2018-07-06T05:38:17.750Z,94867.14
2018-07-06T05:40:57.793Z,94861.48
2018-07-06T05:43:38.157Z,94857.47
2018-07-06T05:46:18.218Z,94857.47
2018-07-06T05:48:58.469Z,94865.91
2018-07-06T05:51:38.507Z,94865.02
2018-07-06T05:54:18.900Z,94862.92
2018-07-06T05:56:58.826Z,94864.50
2018-07-06T05:59:38.690Z,94858.80
2018-07-06T06:02:18.819Z,94866.28
2018-07-06T06:04:59.587Z,94863.40
2018-07-06T06:07:27.235Z,94865.16
2018-07-06T06:09:56.266Z,94864.61
2018-07-06T06:12:25.270Z,94861.59
2018-07-06T06:14:54.437Z,94874.20
2018-07-06T06:17:23.133Z,94866.59
2018-07-06T06:19:52.759Z,94861.25
2018-07-06T06:22:21.557Z,94862.48
2018-07-06T06:24:50.371Z,94861.93
2018-07-06T06:27:19.442Z,94860.94
2018-07-06T06:29:48.517Z,94862.14
2018-07-06T06:32:17.355Z,94861.25
2018-07-06T06:34:46.970Z,94850.30
2018-07-06T06:37:15.842Z,94849.42
2018-07-06T06:39:44.887Z,94851.89
2018-07-06T06:42:13.989Z,94851.65
2018-07-06T06:44:42.812Z,94812.13
2018-07-06T06:47:11.878Z,94848.53
2018-07-06T06:49:41.501Z,94835.39
2018-07-06T06:52:10.686Z,94835.26
2018-07-06T06:54:39.675Z,94839.16
2018-07-06T06:57:08.782Z,94831.14
2018-07-06T06:59:37.867Z,94833.37
2018-07-06T07:02:07.298Z,94834.91
2018-07-06T07:04:36.475Z,94831.89
2018-07-06T07:07:05.664Z,94831.34
2018-07-06T07:09:35.258Z,94830.45
2018-07-06T07:12:04.181Z,94832.78
2018-07-06T07:14:33.269Z,94830.34
2018-07-06T07:17:02.674Z,94837.12
2018-07-06T07:19:31.829Z,94830.20
2018-07-06T07:22:00.959Z,94833.32
2018-07-06T07:24:30.121Z,94834.55
2018-07-06T07:27:00.701Z,94831.30
2018-07-06T07:29:30.089Z,94823.50
2018-07-06T07:31:58.995Z,94830.40
2018-07-06T07:34:27.882Z,94829.30
2018-07-06T07:36:56.892Z,94822.27
2018-07-06T07:39:25.704Z,94825.73
2018-07-06T07:41:54.754Z,94818.14
2018-07-06T07:44:23.745Z,94824.83
2018-07-06T07:46:53.073Z,94823.70
2018-07-06T07:49:21.842Z,94824.14
2018-07-06T07:52:04.377Z,94817.45
2018-07-06T07:54:55.675Z,94818.79
2018-07-06T07:57:25.636Z,94819.58
2018-07-06T07:59:56.365Z,94820.56
2018-07-06T08:02:25.332Z,94822.11
2018-07-06T08:04:54.964Z,94821.01
2018-07-06T08:07:23.819Z,94823.34
2018-07-06T08:09:52.919Z,94813.42
2018-07-06T08:12:22.238Z,94796.05
2018-07-06T08:14:51.318Z,94817.09
2018-07-06T08:17:20.389Z,94822.99
2018-07-06T08:19:49.638Z,94813.19
2018-07-06T08:22:18.811Z,94807.84
2018-07-06T08:24:47.593Z,94815.86
2018-07-06T08:27:16.821Z,94807.39
2018-07-06T08:29:46.501Z,94813.19
2018-07-06T08:32:15.614Z,94806.29
2018-07-06T08:34:55.726Z,94798.81
2018-07-06T08:37:37.971Z,94810.30
2018-07-06T08:40:07.285Z,94802.27
2018-07-06T08:42:37.388Z,94800.70
2018-07-06T08:45:06.481Z,94801.70
2018-07-06T08:47:35.921Z,94803.03
2018-07-06T08:50:05.325Z,94807.62
2018-07-06T08:52:34.626Z,94804.72
2018-07-06T08:55:04.118Z,94805.84
2018-07-06T08:57:34.749Z,94801.14
2018-07-06T09:00:03.561Z,94798.26
2018-07-06T09:02:32.589Z,94796.92
2018-07-06T09:05:02.249Z,94797.82
2018-07-06T09:07:31.207Z,94797.13
2018-07-06T09:10:00.698Z,94793.34
2018-07-06T09:12:29.987Z,94792.56
2018-07-06T09:14:59.673Z,94794.45
2018-07-06T09:17:28.426Z,94782.64
2018-07-06T09:19:59.140Z,94785.28
2018-07-06T09:22:27.622Z,94785.63
2018-07-06T09:24:59.350Z,94779.48
2018-07-06T09:27:28.277Z,94777.03
2018-07-06T09:29:57.594Z,94770.23
2018-07-06T09:32:26.890Z,94762.64
2018-07-06T09:34:55.899Z,94760.75
2018-07-06T09:37:25.087Z,94763.66
2018-07-06T09:39:54.868Z,94760.05
2018-07-06T09:42:23.766Z,94758.72
2018-07-06T09:44:52.839Z,94755.84
2018-07-06T09:47:22.008Z,94748.24
2018-07-06T09:49:50.781Z,94747.11
2018-07-06T09:52:19.681Z,94746.00
2018-07-06T09:54:48.789Z,94749.13
2018-07-06T09:57:17.546Z,94747.00
2018-07-06T09:59:46.532Z,94757.59
2018-07-06T10:02:15.325Z,94753.57
2018-07-06T10:04:44.282Z,94747.32
2018-07-06T10:07:13.116Z,94751.89
2018-07-06T10:09:42.109Z,94673.39
2018-07-06T10:12:11.149Z,94749.85
2018-07-06T10:14:39.943Z,94745.83
2018-07-06T10:17:08.853Z,94745.28
2018-07-06T10:19:38.300Z,94743.24
2018-07-06T10:22:07.599Z,94737.89
2018-07-06T10:24:36.593Z,94735.01
2018-07-06T10:27:06.012Z,94734.11
2018-07-06T10:30:01.923Z,94729.19
2018-07-06T10:32:31.441Z,94740.66
2018-07-06T10:35:00.940Z,94738.41
2018-07-06T10:37:30.179Z,94732.50
2018-07-06T10:39:59.652Z,94736.95
2018-07-06T10:42:28.525Z,94728.92
2018-07-06T10:44:57.717Z,94734.72
2018-07-06T10:47:26.680Z,94734.72
2018-07-06T10:49:55.591Z,94722.40
2018-07-06T10:52:24.831Z,94703.31
2018-07-06T10:54:53.709Z,94718.41
2018-07-06T10:57:22.481Z,94724.91
2018-07-06T10:59:51.410Z,94719.32
2018-07-06T11:02:20.425Z,94719.66
2018-07-06T11:04:49.700Z,94716.20
2018-07-06T11:07:18.960Z,94711.98
2018-07-06T11:09:47.935Z,94714.86
2018-07-06T11:12:16.922Z,94713.13
2018-07-06T11:14:46.183Z,94716.79
2018-07-06T11:17:15.492Z,94709.66
2018-07-06T11:19:44.490Z,94710.01
2018-07-06T11:22:14.018Z,94707.33
2018-07-06T11:24:43.075Z,94711.11
2018-07-06T11:27:12.969Z,94711.67
2018-07-06T11:29:42.484Z,94704.22
2018-07-06T11:32:11.575Z,94704.42
2018-07-06T11:34:40.393Z,94697.17
2018-07-06T11:37:10.109Z,94698.16
2018-07-06T11:39:38.870Z,94691.12
2018-07-06T11:42:08.058Z,94683.08
2018-07-06T11:44:37.357Z,94685.20
2018-07-06T11:47:06.466Z,94683.08
2018-07-06T11:49:35.744Z,94690.56
2018-07-06T11:52:05.651Z,94693.24
2018-07-06T11:54:34.578Z,94687.77
2018-07-06T11:57:03.788Z,94692.34
2018-07-06T11:59:32.878Z,94685.64
2018-07-06T12:02:01.822Z,94684.73
2018-07-06T12:04:30.813Z,94671.35
2018-07-06T12:06:59.893Z,94672.89
2018-07-06T12:09:28.756Z,94670.02
2018-07-06T12:11:57.955Z,94667.77
2018-07-06T12:14:27.978Z,94659.50
2018-07-06T12:16:57.244Z,94652.05
2018-07-06T12:19:26.262Z,94650.20
2018-07-06T12:21:55.789Z,94652.33
2018-07-06T12:24:24.606Z,94645.88
2018-07-06T12:26:53.498Z,94647.61
2018-07-06T12:29:22.850Z,94647.84
2018-07-06T12:31:51.793Z,94646.50
2018-07-06T12:34:20.529Z,94654.54
2018-07-06T12:36:49.480Z,94655.88
2018-07-06T12:39:18.575Z,94651.51
2018-07-06T12:41:47.706Z,94652.30
2018-07-06T12:44:17.311Z,94648.48
2018-07-06T12:46:46.523Z,94639.34
2018-07-06T12:49:15.729Z,94640.67
2018-07-06T12:51:44.743Z,94640.09
2018-07-06T12:54:13.814Z,94640.88
2018-07-06T12:56:42.726Z,94641.11
2018-07-06T12:59:12.263Z,94648.91
2018-07-06T13:01:41.112Z,94654.27
2018-07-06T13:04:10.186Z,94651.59
2018-07-06T13:06:39.416Z,94653.16
2018-07-06T13:09:08.773Z,94642.22
2018-07-06T13:11:37.744Z,94634.18
2018-07-06T13:14:06.592Z,94628.63
2018-07-06T13:16:35.676Z,94630.72
2018-07-06T13:19:04.570Z,94624.80
2018-07-06T13:21:34.207Z,94625.16
2018-07-06T13:24:03.180Z,94627.13
2018-07-06T13:26:32.261Z,94638.83
2018-07-06T13:29:01.485Z,94641.51
2018-07-06T13:31:30.321Z,94649.34
2018-07-06T13:33:59.232Z,94652.02
2018-07-06T13:36:28.574Z,94653.36
2018-07-06T13:38:57.346Z,94653.71
2018-07-06T13:41:26.435Z,94647.80
2018-07-06T13:43:55.548Z,94643.13
2018-07-06T13:46:24.335Z,94651.39
2018-07-06T13:48:53.352Z,94656.52
2018-07-06T13:51:22.403Z,94652.06
2018-07-06T13:53:51.703Z,94671.04
2018-07-06T13:56:20.640Z,94662.58
2018-07-06T13:58:49.924Z,94664.47
2018-07-06T14:01:18.920Z,94667.30
2018-07-06T14:03:48.107Z,94668.63
2018-07-06T14:06:17.341Z,94668.41
2018-07-06T14:08:46.294Z,94670.64
2018-07-06T14:11:15.469Z,94681.16
2018-07-06T14:13:44.914Z,94689.19
2018-07-06T14:16:13.997Z,94695.66
2018-07-06T14:18:43.397Z,94703.33
2018-07-06T14:21:12.629Z,94712.07
2018-07-06T14:23:41.538Z,94708.61
2018-07-06T14:26:10.481Z,94699.03
2018-07-06T14:28:39.694Z,94691.78
2018-07-06T14:31:08.877Z,94699.94
2018-07-06T14:33:38.182Z,94704.73
2018-07-06T14:36:07.810Z,94713.33
2018-07-06T14:38:36.845Z,94711.98
2018-07-06T14:41:05.893Z,94711.78
2018-07-06T14:43:35.131Z,94713.88
2018-07-06T14:46:04.120Z,94725.38
2018-07-06T14:48:33.460Z,94734.28
2018-07-06T14:51:02.606Z,94749.40
2018-07-06T14:53:31.435Z,94738.87
2018-07-06T14:56:00.363Z,94749.47
2018-07-06T14:58:29.678Z,94745.86
2018-07-06T15:00:58.753Z,94748.01
2018-07-06T15:03:27.702Z,94759.63
2018-07-06T15:05:56.945Z,94750.42
2018-07-06T15:08:25.737Z,94752.34
2018-07-06T15:10:54.742Z,94753.84
2018-07-06T15:13:24.051Z,94752.59
2018-07-06T15:15:52.917Z,94747.75
2018-07-06T15:18:21.726Z,94701.24
2018-07-06T15:20:50.821Z,94744.72
2018-07-06T15:23:19.545Z,94734.20
2018-07-06T15:25:48.593Z,94722.38
2018-07-06T15:28:18.124Z,94717.41
2018-07-06T15:30:48.117Z,94713.02
2018-07-06T15:33:16.950Z,94712.67
2018-07-06T15:35:45.931Z,94707.71
2018-07-06T15:38:15.203Z,94712.67
2018-07-06T15:40:44.416Z,94724.73
2018-07-06T15:43:14.118Z,94726.63
2018-07-06T15:45:43.517Z,94725.41
2018-07-06T15:48:12.513Z,94714.01
2018-07-06T15:50:41.973Z,94721.11
2018-07-06T15:53:11.113Z,94725.48
2018-07-06T15:55:40.121Z,94723.79
2018-07-06T15:58:09.641Z,94717.52
2018-07-06T16:00:39.018Z,94710.39
2018-07-06T16:03:08.058Z,94713.07
2018-07-06T16:05:41.070Z,94699.67
2018-07-06T16:08:11.495Z,94703.56
2018-07-06T16:10:43.216Z,94706.05
2018-07-06T16:13:14.166Z,94706.88
2018-07-06T16:15:43.119Z,94703.87
2018-07-06T16:18:12.466Z,94698.00
2018-07-06T16:20:41.794Z,94696.89
2018-07-06T16:23:10.792Z,94701.34
2018-07-06T16:25:40.177Z,94703.31
2018-07-06T16:28:09.865Z,94681.92
2018-07-06T16:30:39.077Z,94695.63
2018-07-06T16:33:08.078Z,94695.49
2018-07-06T16:35:40.487Z,94683.36
2018-07-06T16:38:09.506Z,94684.56
2018-07-06T16:40:38.234Z,94685.98
2018-07-06T16:43:07.605Z,94680.59
2018-07-06T16:45:36.685Z,94677.30
2018-07-06T16:48:07.621Z,94674.26
2018-07-06T16:50:36.545Z,94673.59
2018-07-06T16:53:05.934Z,94673.05
2018-07-06T16:55:34.701Z,94676.30
2018-07-06T16:58:04.032Z,94674.38
2018-07-06T17:00:35.630Z,94670.70
2018-07-06T17:03:04.619Z,94667.64
2018-07-06T17:05:35.563Z,94672.48
2018-07-06T17:08:04.782Z,94688.93
2018-07-06T17:10:33.790Z,94695.75
2018-07-06T17:13:03.106Z,94699.91
2018-07-06T17:15:32.134Z,94706.67
2018-07-06T17:18:01.256Z,94708.07
2018-07-06T17:20:30.943Z,94722.24
2018-07-06T17:23:01.294Z,94727.25
2018-07-06T17:25:30.209Z,94728.65
2018-07-06T17:27:59.306Z,94733.13
2018-07-06T17:30:28.103Z,94743.44
2018-07-06T17:33:03.027Z,94744.97
2018-07-06T17:35:31.918Z,94754.31
2018-07-06T17:38:01.272Z,94764.20
2018-07-06T17:40:30.113Z,94765.50
2018-07-06T17:42:59.078Z,94769.09
2018-07-06T17:45:28.509Z,94769.39
2018-07-06T17:47:57.447Z,94766.51
2018-07-06T17:50:26.204Z,94761.21
2018-07-06T17:52:55.320Z,94762.40
2018-07-06T17:55:24.282Z,94763.61
2018-07-06T17:57:53.226Z,94765.15
2018-07-06T18:00:22.598Z,94772.78
2018-07-06T18:02:51.514Z,94766.92
2018-07-06T18:05:20.860Z,94763.45
2018-07-06T18:07:50.343Z,94764.46
2018-07-06T18:10:19.362Z,94764.30
2018-07-06T18:12:48.466Z,94755.00
2018-07-06T18:15:17.753Z,94750.41
2018-07-06T18:17:46.667Z,94748.22
2018-07-06T18:20:15.651Z,94739.38
2018-07-06T18:22:44.853Z,94734.44
2018-07-06T18:25:13.746Z,94724.42
2018-07-06T18:27:42.985Z,94722.52
2018-07-06T18:30:12.031Z,94721.17
2018-07-06T18:32:40.923Z,94727.66
2018-07-06T18:35:10.455Z,94736.13
2018-07-06T18:37:39.222Z,94743.55
2018-07-06T18:40:08.132Z,94745.58
2018-07-06T18:42:37.443Z,94749.89
2018-07-06T18:45:06.432Z,94749.23
2018-07-06T18:47:35.584Z,94752.39
2018-07-06T18:50:05.019Z,94756.72
2018-07-06T18:52:33.809Z,94759.41
2018-07-06T18:55:02.982Z,94755.94
2018-07-06T18:57:32.485Z,94757.33
2018-07-06T19:00:01.505Z,94759.28
2018-07-06T19:02:30.253Z,94760.67
2018-07-06T19:04:59.464Z,94761.34
2018-07-06T19:07:28.289Z,94768.01
2018-07-06T19:09:57.295Z,94769.91
2018-07-06T19:12:26.584Z,94766.59
2018-07-06T19:14:55.588Z,94766.52
2018-07-06T19:17:24.769Z,94772.31
2018-07-06T19:19:54.006Z,94770.74
2018-07-06T19:22:22.962Z,94771.88
2018-07-06T19:24:52.166Z,94765.18
2018-07-06T19:27:21.255Z,94761.52
2018-07-06T19:29:50.669Z,94759.58
2018-07-06T19:32:20.026Z,94759.58
2018-07-06T19:34:49.949Z,94756.27
2018-07-06T19:37:19.119Z,94759.23
2018-07-06T19:39:48.186Z,94764.27
2018-07-06T19:42:17.492Z,94769.20
2018-07-06T19:44:46.276Z,94774.34
2018-07-06T19:47:15.266Z,94786.64
2018-07-06T19:49:44.584Z,94788.33
2018-07-06T19:52:13.765Z,94795.04
2018-07-06T19:54:42.949Z,94795.59
2018-07-06T19:57:12.374Z,94802.30
2018-07-06T19:59:41.344Z,94800.73
2018-07-06T20:02:10.231Z,94803.41
2018-07-06T20:04:39.289Z,94813.58
2018-07-06T20:07:08.231Z,94807.94
2018-07-06T20:09:37.316Z,94815.55
2018-07-06T20:12:06.599Z,94810.39
2018-07-06T20:14:35.535Z,94814.89
2018-07-06T20:17:04.434Z,94811.78
2018-07-06T20:19:33.742Z,94815.59
2018-07-06T20:22:02.716Z,94808.45
2018-07-06T20:24:32.016Z,94800.77
2018-07-06T20:27:00.925Z,94802.55
2018-07-06T20:29:29.728Z,94807.75
2018-07-06T20:31:59.205Z,94811.14
2018-07-06T20:34:28.277Z,94815.28
2018-07-06T20:36:57.380Z,94813.55
2018-07-06T20:39:26.511Z,94815.80
2018-07-06T20:41:55.285Z,94811.69
2018-07-06T20:44:24.275Z,94805.82
2018-07-06T20:46:53.558Z,94805.42
2018-07-06T20:49:22.257Z,94811.69
2018-07-06T20:51:51.151Z,94809.56
2018-07-06T20:54:20.408Z,94793.67
2018-07-06T20:56:49.341Z,94821.44
2018-07-06T20:59:18.331Z,94818.55
2018-07-06T21:01:47.776Z,94818.55
2018-07-06T21:04:16.842Z,94828.58
2018-07-06T21:06:46.090Z,94810.12
2018-07-06T21:09:15.119Z,94833.06
2018-07-06T21:11:44.029Z,94839.56
2018-07-06T21:14:12.844Z,94832.08
2018-07-06T21:16:41.839Z,94826.28
2018-07-06T21:19:11.017Z,94819.94
2018-07-06T21:21:39.983Z,94817.69
2018-07-06T21:24:09.312Z,94822.41
2018-07-06T21:26:38.602Z,94817.53
2018-07-06T21:29:07.721Z,94815.20
2018-07-06T21:31:36.978Z,94822.19
2018-07-06T21:34:05.795Z,94820.20
2018-07-06T21:36:34.587Z,94827.38
2018-07-06T21:39:04.000Z,94825.02
2018-07-06T21:41:33.085Z,94824.23
2018-07-06T21:44:02.073Z,94822.14
2018-07-06T21:46:31.160Z,94823.83
2018-07-06T21:49:00.261Z,94820.98
2018-07-06T21:51:29.171Z,94821.90
2018-07-06T21:53:58.483Z,94831.63
2018-07-06T21:56:27.511Z,94821.41
2018-07-06T21:58:56.880Z,94823.88
2018-07-06T22:01:26.437Z,94819.78
2018-07-06T22:03:55.455Z,94813.34
2018-07-06T22:06:24.206Z,94812.47
2018-07-06T22:08:53.563Z,94816.05
2018-07-06T22:11:22.439Z,94823.00
2018-07-06T22:13:51.416Z,94821.03
2018-07-06T22:16:20.473Z,94820.59
2018-07-06T22:18:49.770Z,94825.30
2018-07-06T22:21:19.069Z,94821.48
2018-07-06T22:23:48.411Z,94812.81
2018-07-06T22:26:17.716Z,94806.78
2018-07-06T22:28:46.848Z,94799.45
2018-07-06T22:31:16.651Z,94799.45
2018-07-06T22:33:45.786Z,94792.75
2018-07-06T22:36:14.748Z,94796.33
2018-07-06T22:38:44.266Z,94790.77
2018-07-06T22:41:13.139Z,94795.78
2018-07-06T22:43:42.393Z,94793.77
2018-07-06T22:46:12.759Z,94783.41
2018-07-06T22:48:41.654Z,94783.20
2018-07-06T22:51:10.669Z,94780.20
2018-07-06T22:53:40.056Z,94780.34
2018-07-06T22:56:09.271Z,94788.14
2018-07-06T22:58:38.520Z,94782.93
2018-07-06T23:01:08.136Z,94783.14
2018-07-06T23:03:37.575Z,94777.69
2018-07-06T23:06:06.454Z,94779.92
2018-07-06T23:08:35.737Z,94775.27
2018-07-06T23:11:05.745Z,94782.94
2018-07-06T23:13:34.697Z,94767.44
2018-07-06T23:16:04.623Z,94759.11
2018-07-06T23:18:33.655Z,94759.66
2018-07-06T23:21:02.566Z,94761.90
2018-07-06T23:23:31.913Z,94759.47
2018-07-06T23:26:00.829Z,94758.14
2018-07-06T23:28:29.783Z,94762.50
2018-07-06T23:30:59.316Z,94757.49
2018-07-06T23:33:28.262Z,94754.58
2018-07-06T23:35:57.250Z,94761.06
2018-07-06T23:38:26.472Z,94756.81
2018-07-06T23:40:55.604Z,94758.50
2018-07-06T23:43:24.670Z,94758.41
2018-07-06T23:45:53.458Z,94767.22
2018-07-06T23:48:24.029Z,94768.00
2018-07-06T23:50:53.264Z,94761.98
2018-07-06T23:53:22.636Z,94671.92
2018-07-06T23:55:51.546Z,94744.38
2018-07-06T23:58:20.301Z,94748.39
